createdAt,value
2022-09-29T00:00:23.409Z,5.00
2022-09-29T00:01:23.501Z,4.90
2022-09-29T00:02:23.400Z,4.70
2022-09-29T00:03:23.484Z,4.60
2022-09-29T00:04:23.411Z,4.50
2022-09-29T00:05:23.402Z,5.20
2022-09-29T00:06:23.412Z,4.70
2022-09-29T00:07:23.393Z,5.20
2022-09-29T00:08:23.395Z,5.10
2022-09-29T00:09:23.391Z,5.30
2022-09-29T00:10:23.404Z,5.20
2022-09-29T00:11:23.399Z,5.10
2022-09-29T00:12:23.390Z,4.40
2022-09-29T00:13:23.382Z,4.60
2022-09-29T00:14:23.382Z,5.10
2022-09-29T00:15:23.373Z,4.60
2022-09-29T00:16:23.439Z,4.50
2022-09-29T00:17:23.343Z,4.90
2022-09-29T00:18:23.343Z,5.00
2022-09-29T00:19:23.336Z,4.40
2022-09-29T00:20:23.343Z,4.30
2022-09-29T00:21:23.321Z,4.30
2022-09-29T00:22:23.303Z,4.20
2022-09-29T00:23:23.295Z,4.60
2022-09-29T00:24:23.286Z,4.50
2022-09-29T00:25:23.272Z,4.60
2022-09-29T00:26:23.283Z,4.20
2022-09-29T00:27:23.265Z,4.20
2022-09-29T00:28:23.265Z,4.70
2022-09-29T00:29:23.255Z,4.00
2022-09-29T00:30:23.260Z,4.20
2022-09-29T00:31:23.290Z,4.30
2022-09-29T00:32:23.236Z,4.60
2022-09-29T00:33:23.227Z,4.20
2022-09-29T00:34:23.227Z,4.40
2022-09-29T00:35:23.219Z,4.40
2022-09-29T00:36:23.218Z,4.30
2022-09-29T00:37:23.216Z,4.70
2022-09-29T00:38:23.207Z,4.10
2022-09-29T00:39:23.207Z,4.40
2022-09-29T00:40:23.256Z,4.30
2022-09-29T00:41:23.199Z,4.80
2022-09-29T00:42:23.219Z,4.50
2022-09-29T00:43:23.208Z,4.60
2022-09-29T00:44:23.199Z,4.00
2022-09-29T00:45:23.355Z,4.20
2022-09-29T00:46:23.209Z,4.30
2022-09-29T00:47:23.218Z,4.90
2022-09-29T00:48:23.209Z,4.30
2022-09-29T00:49:23.197Z,4.90
2022-09-29T00:50:23.199Z,4.50
2022-09-29T00:51:23.199Z,4.80
2022-09-29T00:52:23.209Z,4.70
2022-09-29T00:53:23.195Z,4.60
2022-09-29T00:54:23.193Z,4.60
2022-09-29T00:55:23.200Z,4.10
2022-09-29T00:56:23.200Z,4.30
2022-09-29T00:57:23.211Z,3.90
2022-09-29T00:58:23.200Z,3.70
2022-09-29T00:59:23.213Z,4.20
2022-09-29T01:00:23.211Z,4.50
2022-09-29T01:01:23.311Z,4.60
2022-09-29T01:02:23.273Z,4.20
2022-09-29T01:03:23.211Z,4.20
2022-09-29T01:04:23.222Z,4.00
2022-09-29T01:05:23.233Z,4.30
2022-09-29T01:06:23.232Z,4.40
2022-09-29T01:07:23.252Z,4.80
2022-09-29T01:08:23.262Z,4.20
2022-09-29T01:09:23.253Z,4.10
2022-09-29T01:10:23.273Z,4.20
2022-09-29T01:11:23.271Z,4.10
2022-09-29T01:12:23.292Z,4.20
2022-09-29T01:13:23.267Z,4.40
2022-09-29T01:14:23.286Z,4.40
2022-09-29T01:15:23.282Z,4.30
2022-09-29T01:16:23.435Z,4.40
2022-09-29T01:17:23.275Z,4.70
2022-09-29T01:18:23.307Z,4.20
2022-09-29T01:19:23.285Z,4.20
2022-09-29T01:20:23.291Z,4.30
2022-09-29T01:21:23.304Z,4.50
2022-09-29T01:22:23.295Z,4.60
2022-09-29T01:23:23.305Z,4.20
2022-09-29T01:24:23.295Z,4.30
2022-09-29T01:25:23.307Z,4.80
2022-09-29T01:26:23.299Z,4.60
2022-09-29T01:27:23.317Z,4.20
2022-09-29T01:28:23.316Z,4.50
2022-09-29T01:29:23.315Z,4.30
2022-09-29T01:30:23.313Z,4.10
2022-09-29T01:31:23.359Z,4.00
2022-09-29T01:32:23.318Z,4.30
2022-09-29T01:33:23.336Z,4.40
2022-09-29T01:34:23.328Z,3.90
2022-09-29T01:35:23.328Z,4.00
2022-09-29T01:36:23.337Z,4.30
2022-09-29T01:37:23.350Z,4.10
2022-09-29T01:38:23.346Z,3.90
2022-09-29T01:39:23.339Z,4.10
2022-09-29T01:40:23.398Z,3.90
2022-09-29T01:41:23.338Z,4.00
2022-09-29T01:42:23.341Z,4.00
2022-09-29T01:43:23.338Z,3.70
2022-09-29T01:44:23.359Z,3.80
2022-09-29T01:45:23.337Z,3.90
2022-09-29T01:46:23.332Z,3.90
2022-09-29T01:47:23.320Z,3.90
2022-09-29T01:48:23.362Z,4.30
2022-09-29T01:49:23.321Z,4.00
2022-09-29T01:50:23.293Z,4.50
2022-09-29T01:51:23.290Z,3.90
2022-09-29T01:52:23.279Z,3.70
2022-09-29T01:53:23.282Z,3.70
2022-09-29T01:54:23.280Z,3.90
2022-09-29T01:55:23.270Z,3.90
2022-09-29T01:56:23.282Z,3.50
2022-09-29T01:57:23.271Z,3.80
2022-09-29T01:58:23.282Z,4.00
2022-09-29T01:59:23.281Z,3.70
2022-09-29T02:00:23.262Z,4.10
2022-09-29T02:01:23.316Z,4.30
2022-09-29T02:02:23.316Z,4.40
2022-09-29T02:03:23.282Z,5.00
2022-09-29T02:04:23.283Z,5.40
2022-09-29T02:05:23.272Z,4.70
2022-09-29T02:06:23.275Z,5.20
2022-09-29T02:07:23.274Z,4.80
2022-09-29T02:08:23.274Z,5.10
2022-09-29T02:09:23.281Z,4.90
2022-09-29T02:10:23.265Z,4.40
2022-09-29T02:11:23.263Z,5.40
2022-09-29T02:12:23.262Z,5.50
2022-09-29T02:13:23.264Z,5.40
2022-09-29T02:14:23.264Z,5.80
2022-09-29T02:15:23.276Z,5.80
2022-09-29T02:16:23.280Z,5.30
2022-09-29T02:17:23.265Z,5.30
2022-09-29T02:18:23.246Z,5.70
2022-09-29T02:19:23.235Z,5.50
2022-09-29T02:20:23.235Z,5.90
2022-09-29T02:21:23.247Z,6.20
2022-09-29T02:22:23.226Z,6.00
2022-09-29T02:23:23.235Z,6.60
2022-09-29T02:24:23.229Z,6.40
2022-09-29T02:25:23.227Z,6.90
2022-09-29T02:26:23.227Z,6.40
2022-09-29T02:27:23.217Z,6.50
2022-09-29T02:28:23.218Z,6.60
2022-09-29T02:29:23.206Z,6.30
2022-09-29T02:30:23.227Z,6.50
2022-09-29T02:31:23.280Z,7.00
2022-09-29T02:32:23.207Z,6.30
2022-09-29T02:33:23.199Z,6.90
2022-09-29T02:34:23.196Z,6.40
2022-09-29T02:35:23.219Z,6.60
2022-09-29T02:36:23.198Z,6.40
2022-09-29T02:37:23.190Z,6.20
2022-09-29T02:38:23.210Z,6.30
2022-09-29T02:39:23.178Z,6.00
2022-09-29T02:40:23.239Z,6.30
2022-09-29T02:41:23.178Z,6.50
2022-09-29T02:42:23.151Z,6.30
2022-09-29T02:43:23.149Z,6.60
2022-09-29T02:44:23.131Z,6.10
2022-09-29T02:45:23.200Z,5.70
2022-09-29T02:46:23.112Z,5.90
2022-09-29T02:47:23.099Z,5.90
2022-09-29T02:48:23.081Z,5.90
2022-09-29T02:49:23.082Z,5.50
2022-09-29T02:50:23.079Z,5.60
2022-09-29T02:51:23.071Z,5.80
2022-09-29T02:52:23.053Z,6.10
2022-09-29T02:53:23.051Z,6.00
2022-09-29T02:54:23.034Z,5.80
2022-09-29T02:55:23.050Z,5.50
2022-09-29T02:56:23.047Z,6.60
2022-09-29T02:57:23.034Z,6.00
2022-09-29T02:58:23.023Z,6.00
2022-09-29T02:59:23.025Z,6.10
2022-09-29T03:00:23.013Z,6.00
2022-09-29T03:01:23.048Z,6.10
2022-09-29T03:02:22.992Z,6.40
2022-09-29T03:03:23.041Z,6.50
2022-09-29T03:04:22.984Z,6.80
2022-09-29T03:05:22.984Z,6.60
2022-09-29T03:06:22.982Z,7.10
2022-09-29T03:07:22.975Z,6.10
2022-09-29T03:08:22.964Z,6.50
2022-09-29T03:09:22.945Z,6.30
2022-09-29T03:10:24.901Z,6.20
2022-09-29T03:11:23.945Z,6.30
2022-09-29T03:12:22.927Z,6.60
2022-09-29T03:13:22.926Z,5.70
2022-09-29T03:14:22.916Z,5.70
2022-09-29T03:15:22.906Z,5.80
2022-09-29T03:16:22.914Z,6.10
2022-09-29T03:17:22.897Z,5.30
2022-09-29T03:18:22.886Z,6.00
2022-09-29T03:19:22.885Z,6.00
2022-09-29T03:20:22.877Z,5.40
2022-09-29T03:21:22.878Z,5.10
2022-09-29T03:22:22.856Z,6.00
2022-09-29T03:23:22.858Z,5.80
2022-09-29T03:24:22.851Z,5.80
2022-09-29T03:25:22.839Z,5.50
2022-09-29T03:26:22.849Z,6.30
2022-09-29T03:27:22.819Z,6.00
2022-09-29T03:28:22.808Z,5.90
2022-09-29T03:29:22.810Z,6.20
2022-09-29T03:30:22.801Z,6.10
2022-09-29T03:31:22.811Z,6.20
2022-09-29T03:32:22.789Z,7.50
2022-09-29T03:33:22.790Z,10.10
2022-09-29T03:34:22.770Z,10.10
2022-09-29T03:35:22.760Z,7.30
2022-09-29T03:36:22.748Z,8.00
2022-09-29T03:37:22.761Z,10.50
2022-09-29T03:38:22.741Z,8.90
2022-09-29T03:39:22.733Z,7.90
2022-09-29T03:40:22.737Z,8.40
2022-09-29T03:41:22.719Z,9.90
2022-09-29T03:42:22.711Z,11.20
2022-09-29T03:43:22.700Z,9.90
2022-09-29T03:44:22.695Z,10.40
2022-09-29T03:45:22.771Z,10.80
2022-09-29T03:46:22.662Z,12.60
2022-09-29T03:47:22.673Z,9.50
2022-09-29T03:48:24.242Z,7.50
2022-09-29T03:49:22.641Z,7.20
2022-09-29T03:50:22.622Z,6.10
2022-09-29T03:51:22.624Z,5.50
2022-09-29T03:52:22.611Z,5.10
2022-09-29T03:53:22.603Z,5.40
2022-09-29T03:54:22.595Z,5.50
2022-09-29T03:55:22.585Z,5.60
2022-09-29T03:56:22.572Z,5.20
2022-09-29T03:57:22.573Z,5.00
2022-09-29T03:58:22.558Z,5.70
2022-09-29T03:59:22.545Z,5.60
2022-09-29T04:00:22.535Z,5.60
2022-09-29T04:01:22.575Z,5.60
2022-09-29T04:02:22.583Z,5.80
2022-09-29T04:03:22.498Z,5.90
2022-09-29T04:04:22.500Z,5.20
2022-09-29T04:05:22.504Z,6.90
2022-09-29T04:06:22.504Z,6.00
2022-09-29T04:07:22.478Z,6.70
2022-09-29T04:08:22.446Z,6.40
2022-09-29T04:09:22.427Z,6.30
2022-09-29T04:10:22.417Z,6.10
2022-09-29T04:11:22.406Z,6.50
2022-09-29T04:12:22.395Z,6.60
2022-09-29T04:13:22.398Z,6.70
2022-09-29T04:14:22.360Z,6.40
2022-09-29T04:15:22.361Z,6.30
2022-09-29T04:16:22.386Z,5.80
2022-09-29T04:17:22.329Z,6.20
2022-09-29T04:18:22.319Z,6.00
2022-09-29T04:19:22.300Z,5.50
2022-09-29T04:20:22.276Z,6.00
2022-09-29T04:21:22.263Z,6.00
2022-09-29T04:22:22.249Z,5.60
2022-09-29T04:23:22.228Z,5.50
2022-09-29T04:24:22.218Z,6.00
2022-09-29T04:25:22.199Z,5.80
2022-09-29T04:26:22.193Z,5.90
2022-09-29T04:27:22.151Z,6.10
2022-09-29T04:28:22.151Z,6.00
2022-09-29T04:29:22.131Z,5.90
2022-09-29T04:30:22.113Z,6.10
2022-09-29T04:31:22.143Z,5.70
2022-09-29T04:32:22.084Z,5.70
2022-09-29T04:33:22.081Z,5.90
2022-09-29T04:34:22.070Z,6.50
2022-09-29T04:35:22.032Z,6.30
2022-09-29T04:36:22.021Z,6.70
2022-09-29T04:37:22.006Z,6.50
2022-09-29T04:38:22.001Z,7.00
2022-09-29T04:39:21.973Z,6.50
2022-09-29T04:40:21.988Z,6.80
2022-09-29T04:41:21.943Z,6.00
2022-09-29T04:42:21.929Z,6.40
2022-09-29T04:43:21.937Z,6.10
2022-09-29T04:44:21.904Z,6.20
2022-09-29T04:45:21.895Z,6.20
2022-09-29T04:46:22.016Z,6.70
2022-09-29T04:47:21.846Z,6.50
2022-09-29T04:48:21.847Z,6.70
2022-09-29T04:49:21.828Z,7.20
2022-09-29T04:50:21.826Z,7.40
2022-09-29T04:51:21.796Z,7.80
2022-09-29T04:52:21.794Z,7.20
2022-09-29T04:53:21.791Z,7.10
2022-09-29T04:54:21.786Z,7.10
2022-09-29T04:55:21.747Z,6.80
2022-09-29T04:56:21.737Z,7.30
2022-09-29T04:57:21.730Z,7.70
2022-09-29T04:58:21.718Z,8.20
2022-09-29T04:59:21.708Z,8.30
2022-09-29T05:00:21.677Z,7.50
2022-09-29T05:01:21.766Z,7.50
2022-09-29T05:02:21.724Z,7.30
2022-09-29T05:03:21.613Z,7.90
2022-09-29T05:04:21.608Z,8.00
2022-09-29T05:05:21.571Z,8.10
2022-09-29T05:06:21.567Z,10.00
2022-09-29T05:07:21.530Z,9.80
2022-09-29T05:08:21.518Z,10.00
2022-09-29T05:09:24.613Z,10.40
2022-09-29T05:10:21.474Z,10.40
2022-09-29T05:11:21.459Z,11.10
2022-09-29T05:12:21.441Z,13.80
2022-09-29T05:13:21.429Z,12.20
2022-09-29T05:14:21.415Z,9.10
2022-09-29T05:15:25.685Z,7.70
2022-09-29T05:16:21.416Z,7.60
2022-09-29T05:17:21.339Z,7.30
2022-09-29T05:18:21.331Z,7.50
2022-09-29T05:19:21.362Z,7.50
2022-09-29T05:20:21.273Z,7.50
2022-09-29T05:21:28.250Z,7.60
2022-09-29T05:22:22.232Z,7.30
2022-09-29T05:23:21.203Z,7.40
2022-09-29T05:24:21.182Z,7.80
2022-09-29T05:25:21.144Z,9.60
2022-09-29T05:26:21.113Z,8.70
2022-09-29T05:27:21.094Z,9.00
2022-09-29T05:28:21.074Z,8.80
2022-09-29T05:29:21.123Z,9.80
2022-09-29T05:30:21.024Z,9.50
2022-09-29T05:31:21.066Z,10.40
2022-09-29T05:32:20.985Z,9.70
2022-09-29T05:33:20.945Z,10.30
2022-09-29T05:34:20.934Z,10.00
2022-09-29T05:35:20.916Z,9.90
2022-09-29T05:36:20.883Z,9.70
2022-09-29T05:37:20.854Z,10.80
2022-09-29T05:38:20.835Z,10.00
2022-09-29T05:39:21.093Z,10.20
2022-09-29T05:40:20.897Z,10.80
2022-09-29T05:41:20.755Z,10.00
2022-09-29T05:42:20.737Z,10.00
2022-09-29T05:43:20.706Z,10.00
2022-09-29T05:44:20.687Z,9.60
2022-09-29T05:45:20.687Z,10.40
2022-09-29T05:46:20.721Z,9.20
2022-09-29T05:47:20.627Z,8.90
2022-09-29T05:48:20.611Z,9.50
2022-09-29T05:49:20.694Z,9.40
2022-09-29T05:50:20.568Z,9.80
2022-09-29T05:51:22.783Z,10.50
2022-09-29T05:52:20.518Z,10.80
2022-09-29T05:53:20.489Z,12.50
2022-09-29T05:54:20.461Z,12.20
2022-09-29T05:55:20.441Z,12.00
2022-09-29T05:56:20.410Z,12.80
2022-09-29T05:57:20.379Z,12.80
2022-09-29T05:58:20.361Z,13.30
2022-09-29T05:59:20.461Z,13.90
2022-09-29T06:00:20.331Z,13.00
2022-09-29T06:01:20.400Z,13.40
2022-09-29T06:02:20.355Z,12.00
2022-09-29T06:03:20.251Z,12.30
2022-09-29T06:04:20.231Z,13.10
2022-09-29T06:05:20.202Z,12.00
2022-09-29T06:06:20.183Z,12.10
2022-09-29T06:07:20.154Z,12.60
2022-09-29T06:08:20.126Z,12.10
2022-09-29T06:09:20.212Z,12.80
2022-09-29T06:10:20.094Z,13.00
2022-09-29T06:11:20.053Z,14.10
2022-09-29T06:12:21.773Z,13.00
2022-09-29T06:13:20.013Z,13.50
2022-09-29T06:14:19.984Z,13.70
2022-09-29T06:15:19.981Z,14.10
2022-09-29T06:16:20.166Z,14.90
2022-09-29T06:17:19.964Z,14.80
2022-09-29T06:18:19.903Z,15.70
2022-09-29T06:19:19.935Z,16.60
2022-09-29T06:20:19.848Z,16.40
2022-09-29T06:21:19.832Z,16.60
2022-09-29T06:22:19.785Z,15.50
2022-09-29T06:23:19.755Z,15.40
2022-09-29T06:24:19.735Z,15.60
2022-09-29T06:25:19.703Z,15.30
2022-09-29T06:26:23.656Z,15.80
2022-09-29T06:27:19.638Z,15.60
2022-09-29T06:28:19.616Z,15.70
2022-09-29T06:29:19.630Z,15.10
2022-09-29T06:30:19.550Z,14.50
2022-09-29T06:31:19.572Z,13.90
2022-09-29T06:32:19.480Z,14.50
2022-09-29T06:33:19.447Z,14.90
2022-09-29T06:34:19.418Z,15.00
2022-09-29T06:35:19.389Z,15.00
2022-09-29T06:36:19.379Z,15.90
2022-09-29T06:37:19.320Z,15.20
2022-09-29T06:38:19.314Z,14.60
2022-09-29T06:39:19.277Z,14.90
2022-09-29T06:40:19.287Z,14.90
2022-09-29T06:41:19.196Z,14.30
2022-09-29T06:42:19.173Z,14.40
2022-09-29T06:43:19.138Z,15.20
2022-09-29T06:44:19.100Z,15.40
2022-09-29T06:45:22.059Z,13.90
2022-09-29T06:46:19.098Z,14.20
2022-09-29T06:47:19.012Z,15.20
2022-09-29T06:48:18.982Z,15.90
2022-09-29T06:49:18.988Z,15.60
2022-09-29T06:50:22.487Z,14.80
2022-09-29T06:51:18.893Z,14.90
2022-09-29T06:52:20.867Z,14.20
2022-09-29T06:53:22.087Z,15.90
2022-09-29T06:54:19.782Z,15.40
2022-09-29T06:55:18.733Z,15.60
2022-09-29T06:56:18.722Z,15.10
2022-09-29T06:57:18.664Z,15.40
2022-09-29T06:58:18.635Z,15.30
2022-09-29T06:59:18.698Z,15.30
2022-09-29T07:00:18.547Z,16.10
2022-09-29T07:01:18.528Z,15.80
2022-09-29T07:02:18.525Z,15.30
2022-09-29T07:03:18.422Z,14.90
2022-09-29T07:04:18.433Z,14.70
2022-09-29T07:05:18.338Z,14.50
2022-09-29T07:06:20.385Z,16.10
2022-09-29T07:07:18.263Z,14.90
2022-09-29T07:08:18.223Z,15.20
2022-09-29T07:09:18.279Z,14.50
2022-09-29T07:10:18.138Z,14.80
2022-09-29T07:11:18.108Z,14.80
2022-09-29T07:12:18.109Z,14.40
2022-09-29T07:13:18.039Z,14.00
2022-09-29T07:14:18.040Z,14.40
2022-09-29T07:15:17.958Z,14.50
2022-09-29T07:16:17.984Z,14.80
2022-09-29T07:17:17.898Z,14.60
2022-09-29T07:18:17.857Z,14.00
2022-09-29T07:19:17.863Z,13.90
2022-09-29T07:20:17.789Z,13.20
2022-09-29T07:21:17.744Z,13.90
2022-09-29T07:22:17.722Z,13.60
2022-09-29T07:23:17.671Z,14.10
2022-09-29T07:24:17.641Z,13.40
2022-09-29T07:25:33.894Z,13.80
2022-09-29T07:26:18.559Z,14.50
2022-09-29T07:27:17.530Z,14.00
2022-09-29T07:28:17.504Z,13.90
2022-09-29T07:29:17.525Z,13.90
2022-09-29T07:30:17.416Z,13.00
2022-09-29T07:31:17.377Z,14.30
2022-09-29T07:32:26.818Z,12.70
2022-09-29T07:33:26.417Z,13.70
2022-09-29T07:34:18.244Z,13.50
2022-09-29T07:35:17.195Z,12.80
2022-09-29T07:36:17.164Z,12.80
2022-09-29T07:37:17.112Z,12.70
2022-09-29T07:38:17.091Z,12.60
2022-09-29T07:39:17.088Z,12.90
2022-09-29T07:40:17.015Z,13.40
2022-09-29T07:41:16.958Z,12.40
2022-09-29T07:42:16.934Z,12.80
2022-09-29T07:43:16.908Z,13.20
2022-09-29T07:44:16.934Z,12.10
2022-09-29T07:45:16.826Z,13.00
2022-09-29T07:46:16.877Z,12.30
2022-09-29T07:47:16.753Z,12.20
2022-09-29T07:48:16.727Z,12.60
2022-09-29T07:49:16.750Z,12.00
2022-09-29T07:50:16.646Z,11.60
2022-09-29T07:51:16.614Z,12.90
2022-09-29T07:52:16.567Z,12.10
2022-09-29T07:53:16.534Z,12.50
2022-09-29T07:54:16.552Z,11.60
2022-09-29T07:55:16.437Z,11.60
2022-09-29T07:56:16.397Z,11.40
2022-09-29T07:57:16.358Z,10.80
2022-09-29T07:58:16.327Z,11.40
2022-09-29T07:59:16.268Z,11.20
2022-09-29T08:00:16.229Z,10.90
2022-09-29T08:01:16.507Z,11.00
2022-09-29T08:02:16.186Z,11.30
2022-09-29T08:03:16.081Z,11.20
2022-09-29T08:04:16.050Z,10.60
2022-09-29T08:05:15.990Z,10.40
2022-09-29T08:06:15.954Z,9.90
2022-09-29T08:07:15.891Z,9.90
2022-09-29T08:08:15.852Z,9.60
2022-09-29T08:09:15.791Z,10.20
2022-09-29T08:10:17.651Z,11.00
2022-09-29T08:11:24.694Z,10.50
2022-09-29T08:12:16.642Z,10.40
2022-09-29T08:13:15.583Z,10.60
2022-09-29T08:14:15.622Z,11.20
2022-09-29T08:15:15.482Z,10.60
2022-09-29T08:16:15.528Z,11.30
2022-09-29T08:17:15.383Z,11.30
2022-09-29T08:18:15.336Z,11.40
2022-09-29T08:19:15.287Z,11.70
2022-09-29T08:20:15.250Z,11.80
2022-09-29T08:21:15.174Z,11.40
2022-09-29T08:22:15.124Z,12.30
2022-09-29T08:23:15.075Z,12.20
2022-09-29T08:24:15.131Z,12.50
2022-09-29T08:25:14.967Z,12.10
2022-09-29T08:26:14.917Z,12.10
2022-09-29T08:27:18.588Z,12.50
2022-09-29T08:28:22.452Z,12.00
2022-09-29T08:29:16.901Z,12.00
2022-09-29T08:30:14.685Z,11.90
2022-09-29T08:31:14.631Z,12.20
2022-09-29T08:32:14.567Z,11.40
2022-09-29T08:33:14.507Z,11.60
2022-09-29T08:34:14.627Z,11.30
2022-09-29T08:35:14.398Z,11.40
2022-09-29T08:36:14.388Z,11.40
2022-09-29T08:37:14.298Z,11.70
2022-09-29T08:38:14.241Z,11.60
2022-09-29T08:39:14.198Z,11.00
2022-09-29T08:40:14.142Z,11.40
2022-09-29T08:41:14.099Z,10.90
2022-09-29T08:42:14.041Z,11.20
2022-09-29T08:43:16.455Z,11.60
2022-09-29T08:44:31.409Z,11.20
2022-09-29T08:45:16.485Z,11.50
2022-09-29T08:46:14.272Z,12.70
2022-09-29T08:47:13.831Z,11.70
2022-09-29T08:48:21.757Z,11.90
2022-09-29T08:49:21.838Z,10.90
2022-09-29T08:50:14.652Z,10.80
2022-09-29T08:51:13.605Z,10.60
2022-09-29T08:52:16.778Z,10.90
2022-09-29T08:53:22.269Z,10.80
2022-09-29T08:54:14.475Z,10.30
2022-09-29T08:55:19.049Z,11.00
2022-09-29T08:56:14.374Z,11.40
2022-09-29T08:57:13.333Z,10.80
2022-09-29T08:58:13.263Z,10.70
2022-09-29T08:59:13.225Z,11.10
2022-09-29T09:00:13.185Z,11.10
2022-09-29T09:01:13.206Z,10.80
2022-09-29T09:02:13.109Z,11.00
2022-09-29T09:03:13.026Z,11.50
2022-09-29T09:04:12.967Z,10.70
2022-09-29T09:05:12.926Z,10.80
2022-09-29T09:06:12.898Z,10.60
2022-09-29T09:07:12.813Z,11.30
2022-09-29T09:08:12.799Z,11.70
2022-09-29T09:09:12.786Z,10.80
2022-09-29T09:10:12.657Z,11.00
2022-09-29T09:11:12.597Z,11.60
2022-09-29T09:12:12.519Z,10.60
2022-09-29T09:13:12.470Z,9.40
2022-09-29T09:14:12.560Z,10.20
2022-09-29T09:15:12.349Z,10.00
2022-09-29T09:16:12.334Z,10.20
2022-09-29T09:17:12.228Z,10.20
2022-09-29T09:18:12.172Z,11.60
2022-09-29T09:19:12.121Z,9.50
2022-09-29T09:20:12.060Z,9.30
2022-09-29T09:21:12.000Z,9.80
2022-09-29T09:22:11.942Z,9.30
2022-09-29T09:23:11.892Z,9.60
2022-09-29T09:24:11.822Z,9.30
2022-09-29T09:25:11.799Z,9.60
2022-09-29T09:26:11.732Z,8.70
2022-09-29T09:27:11.682Z,8.70
2022-09-29T09:28:11.624Z,9.40
2022-09-29T09:29:11.553Z,8.60
2022-09-29T09:30:11.523Z,8.90
2022-09-29T09:31:11.518Z,8.80
2022-09-29T09:32:11.404Z,8.90
2022-09-29T09:33:12.889Z,8.70
2022-09-29T09:34:11.288Z,8.90
2022-09-29T09:35:22.951Z,9.10
2022-09-29T09:36:12.428Z,8.60
2022-09-29T09:37:11.105Z,8.20
2022-09-29T09:38:11.046Z,7.70
2022-09-29T09:39:10.978Z,7.60
2022-09-29T09:40:10.908Z,8.30
2022-09-29T09:41:10.875Z,7.20
2022-09-29T09:42:10.787Z,6.90
2022-09-29T09:43:10.735Z,7.00
2022-09-29T09:44:10.675Z,7.30
2022-09-29T09:45:10.605Z,7.10
2022-09-29T09:46:10.567Z,7.50
2022-09-29T09:47:10.485Z,7.10
2022-09-29T09:48:10.408Z,7.20
2022-09-29T09:49:10.339Z,7.00
2022-09-29T09:50:10.289Z,6.80
2022-09-29T09:51:10.219Z,6.80
2022-09-29T09:52:10.239Z,6.60
2022-09-29T09:53:13.104Z,6.40
2022-09-29T09:54:11.024Z,6.10
2022-09-29T09:55:09.951Z,6.30
2022-09-29T09:56:09.891Z,6.00
2022-09-29T09:57:09.810Z,6.00
2022-09-29T09:58:09.741Z,6.40
2022-09-29T09:59:09.692Z,6.30
2022-09-29T10:00:09.631Z,6.40
2022-09-29T10:01:09.657Z,6.70
2022-09-29T10:02:09.691Z,6.50
2022-09-29T10:03:09.445Z,5.50
2022-09-29T10:04:09.374Z,5.80
2022-09-29T10:05:09.651Z,4.70
2022-09-29T10:06:09.243Z,5.00
2022-09-29T10:07:09.173Z,4.60
2022-09-29T10:08:09.084Z,4.90
2022-09-29T10:09:09.060Z,5.30
2022-09-29T10:10:08.942Z,5.40
2022-09-29T10:11:08.877Z,4.80
2022-09-29T10:12:08.802Z,4.70
2022-09-29T10:13:08.737Z,4.40
2022-09-29T10:14:08.647Z,5.00
2022-09-29T10:15:08.576Z,4.70
2022-09-29T10:16:08.552Z,4.50
2022-09-29T10:17:08.449Z,4.20
2022-09-29T10:18:08.347Z,4.10
2022-09-29T10:19:08.278Z,4.30
2022-09-29T10:20:08.206Z,3.80
2022-09-29T10:21:08.145Z,4.30
2022-09-29T10:22:08.117Z,3.30
2022-09-29T10:23:08.002Z,2.80
2022-09-29T10:24:07.917Z,3.10
2022-09-29T10:25:07.857Z,2.90
2022-09-29T10:26:07.778Z,2.80
2022-09-29T10:27:07.713Z,2.90
2022-09-29T10:28:07.638Z,2.60
2022-09-29T10:29:07.540Z,2.20
2022-09-29T10:30:07.470Z,2.40
2022-09-29T10:31:07.427Z,2.30
2022-09-29T10:32:07.316Z,2.50
2022-09-29T10:33:10.503Z,2.50
2022-09-29T10:34:07.163Z,2.40
2022-09-29T10:35:07.084Z,2.50
2022-09-29T10:36:06.991Z,2.10
2022-09-29T10:37:06.923Z,1.90
2022-09-29T10:38:06.832Z,2.00
2022-09-29T10:39:06.754Z,2.30
2022-09-29T10:40:06.673Z,2.60
2022-09-29T10:41:06.593Z,2.40
2022-09-29T10:42:06.504Z,2.50
2022-09-29T10:43:06.446Z,2.20
2022-09-29T10:44:06.355Z,2.20
2022-09-29T10:45:06.285Z,2.90
2022-09-29T10:46:06.273Z,2.30
2022-09-29T10:47:06.117Z,2.10
2022-09-29T10:48:06.038Z,2.70
2022-09-29T10:49:05.967Z,2.70
2022-09-29T10:50:05.877Z,2.50
2022-09-29T10:51:05.807Z,2.70
2022-09-29T10:52:05.717Z,3.30
2022-09-29T10:53:07.947Z,3.50
2022-09-29T10:54:05.561Z,3.60
2022-09-29T10:55:05.486Z,3.40
2022-09-29T10:56:05.396Z,2.80
2022-09-29T10:57:05.309Z,2.80
2022-09-29T10:58:05.230Z,3.80
2022-09-29T10:59:06.215Z,3.00
2022-09-29T11:00:05.060Z,3.40
2022-09-29T11:01:05.000Z,3.30
2022-09-29T11:02:04.898Z,2.70
2022-09-29T11:03:04.952Z,2.70
2022-09-29T11:04:04.678Z,2.90
2022-09-29T11:05:04.592Z,2.70
2022-09-29T11:06:04.482Z,2.80
2022-09-29T11:07:04.403Z,3.30
2022-09-29T11:08:04.302Z,2.70
2022-09-29T11:09:04.305Z,3.00
2022-09-29T11:10:04.123Z,3.70
2022-09-29T11:11:04.023Z,4.80
2022-09-29T11:12:08.659Z,3.50
2022-09-29T11:13:04.831Z,4.00
2022-09-29T11:14:03.745Z,4.10
2022-09-29T11:15:03.644Z,4.10
2022-09-29T11:16:03.544Z,4.30
2022-09-29T11:17:03.466Z,4.20
2022-09-29T11:18:03.395Z,4.00
2022-09-29T11:19:03.270Z,5.20
2022-09-29T11:20:03.166Z,5.70
2022-09-29T11:21:03.068Z,5.50
2022-09-29T11:22:03.041Z,6.00
2022-09-29T11:23:02.867Z,5.30
2022-09-29T11:24:02.764Z,4.90
2022-09-29T11:25:02.667Z,5.00
2022-09-29T11:26:02.558Z,4.90
2022-09-29T11:27:02.478Z,5.70
2022-09-29T11:28:02.365Z,6.40
2022-09-29T11:29:02.279Z,5.90
2022-09-29T11:30:02.181Z,5.90
2022-09-29T11:31:02.117Z,5.70
2022-09-29T11:32:01.980Z,4.90
2022-09-29T11:33:01.881Z,4.90
2022-09-29T11:34:01.791Z,4.70
2022-09-29T11:35:01.701Z,4.90
2022-09-29T11:36:01.597Z,5.70
2022-09-29T11:37:01.517Z,5.90
2022-09-29T11:38:01.412Z,5.60
2022-09-29T11:39:01.345Z,5.00
2022-09-29T11:40:01.244Z,5.00
2022-09-29T11:41:01.184Z,4.90
2022-09-29T11:42:01.043Z,4.90
2022-09-29T11:43:00.941Z,5.20
2022-09-29T11:44:00.850Z,5.00
2022-09-29T11:45:00.774Z,5.30
2022-09-29T11:46:00.719Z,5.20
2022-09-29T11:47:00.574Z,5.00
2022-09-29T11:48:00.471Z,5.40
2022-09-29T11:49:00.394Z,6.00
2022-09-29T11:50:00.306Z,5.10
2022-09-29T11:51:00.197Z,5.70
2022-09-29T11:52:00.104Z,5.30
2022-09-29T11:52:59.994Z,6.00
2022-09-29T11:54:03.859Z,6.00
2022-09-29T11:55:00.807Z,6.70
2022-09-29T11:55:59.706Z,6.60
2022-09-29T11:56:59.598Z,5.90
2022-09-29T11:57:59.518Z,5.70
2022-09-29T11:58:59.428Z,6.10
2022-09-29T11:59:59.327Z,6.10
2022-09-29T12:00:59.229Z,6.20
2022-09-29T12:01:59.135Z,5.80
2022-09-29T12:02:59.104Z,7.30
2022-09-29T12:03:58.911Z,6.40
2022-09-29T12:04:58.839Z,7.00
2022-09-29T12:05:58.713Z,7.10
2022-09-29T12:06:58.622Z,5.90
2022-09-29T12:07:58.531Z,5.80
2022-09-29T12:08:58.452Z,5.30
2022-09-29T12:09:58.352Z,5.90
2022-09-29T12:10:58.241Z,5.40
2022-09-29T12:12:11.649Z,5.30
2022-09-29T12:12:59.065Z,5.00
2022-09-29T12:13:57.964Z,5.30
2022-09-29T12:14:57.885Z,5.00
2022-09-29T12:15:57.803Z,5.00
2022-09-29T12:16:57.782Z,5.10
2022-09-29T12:17:57.614Z,5.10
2022-09-29T12:18:57.524Z,4.40
2022-09-29T12:19:57.436Z,5.20
2022-09-29T12:20:57.355Z,4.60
2022-09-29T12:21:57.246Z,4.30
2022-09-29T12:22:57.167Z,3.70
2022-09-29T12:23:57.069Z,4.50
2022-09-29T12:24:56.989Z,5.10
2022-09-29T12:25:56.896Z,4.80
2022-09-29T12:26:56.807Z,5.00
2022-09-29T12:27:56.718Z,5.30
2022-09-29T12:28:56.630Z,5.20
2022-09-29T12:29:56.545Z,4.70
2022-09-29T12:30:56.513Z,5.40
2022-09-29T12:31:56.481Z,5.00
2022-09-29T12:32:56.259Z,5.20
2022-09-29T12:33:56.160Z,4.80
2022-09-29T12:34:56.090Z,5.00
2022-09-29T12:35:56.000Z,5.20
2022-09-29T12:36:55.921Z,4.50
2022-09-29T12:37:55.822Z,4.20
2022-09-29T12:38:55.729Z,4.70
2022-09-29T12:39:55.631Z,4.20
2022-09-29T12:40:55.564Z,4.60
2022-09-29T12:41:55.452Z,3.90
2022-09-29T12:42:55.374Z,3.90
2022-09-29T12:43:55.263Z,3.70
2022-09-29T12:44:55.182Z,3.80
2022-09-29T12:45:55.130Z,4.00
2022-09-29T12:46:55.004Z,5.10
2022-09-29T12:47:54.934Z,4.30
2022-09-29T12:48:54.834Z,4.30
2022-09-29T12:49:54.717Z,5.10
2022-09-29T12:50:54.658Z,5.00
2022-09-29T12:51:54.535Z,4.70
2022-09-29T12:52:54.456Z,4.90
2022-09-29T12:53:54.362Z,4.20
2022-09-29T12:54:54.243Z,3.70
2022-09-29T12:55:54.146Z,3.90
2022-09-29T12:56:54.057Z,3.80
2022-09-29T12:57:53.955Z,4.00
2022-09-29T12:58:53.866Z,4.10
2022-09-29T12:59:53.758Z,5.60
2022-09-29T13:00:53.660Z,5.40
2022-09-29T13:01:53.578Z,5.70
2022-09-29T13:02:53.481Z,4.90
2022-09-29T13:03:53.391Z,5.00
2022-09-29T13:04:53.290Z,6.50
2022-09-29T13:05:53.200Z,6.10
2022-09-29T13:06:53.110Z,6.80
2022-09-29T13:07:53.021Z,5.70
2022-09-29T13:08:52.911Z,6.80
2022-09-29T13:09:52.824Z,10.50